Time;durP1;ratioP1;P1;durP2;ratioP2;P2;SDS_P1;SDS_P2;PMS_P1;PMS_P2;Temp;Humidity;BMP_temperature;BMP_pressure;BME280_temperature;BME280_humidity;BME280_pressure;Samples;Min_cycle;Max_cycle;Signal;HPM_P1;HPM_P2
2022/10/03 00:00:15;;;;;;;14.80;2.08;;;10.00;99.90;;;;;;5068275;28;20053;-58
2022/10/03 00:03:09;;;;;;;12.55;1.90;;;10.00;99.90;;;;;;5062015;28;20104;-57
2022/10/03 00:06:01;;;;;;;11.48;1.95;;;10.20;99.90;;;;;;5061218;28;20045;-58
2022/10/03 00:08:47;;;;;;;10.50;1.85;;;10.00;99.90;;;;;;5060498;28;20084;-58
2022/10/03 00:11:39;;;;;;;13.80;1.90;;;10.10;99.90;;;;;;5061500;28;20037;-56
2022/10/03 00:14:40;;;;;;;13.63;1.77;;;10.30;99.90;;;;;;5061086;28;20064;-58
2022/10/03 00:17:17;;;;;;;13.52;2.13;;;10.40;99.90;;;;;;5056686;28;20513;-58
2022/10/03 00:20:01;;;;;;;14.30;3.03;;;10.40;99.90;;;;;;5060043;28;20566;-57
2022/10/03 00:22:58;;;;;;;15.02;1.52;;;10.20;99.90;;;;;;5059146;28;20059;-57
2022/10/03 00:25:46;;;;;;;10.35;2.05;;;10.20;99.90;;;;;;5061252;28;20071;-57
2022/10/03 00:28:40;;;;;;;12.07;1.75;;;10.30;99.90;;;;;;5061194;28;20049;-57
2022/10/03 00:31:36;;;;;;;13.98;2.97;;;10.20;99.90;;;;;;5060792;28;20041;-58
2022/10/03 00:34:13;;;;;;;12.93;1.85;;;10.20;99.90;;;;;;5061511;28;20176;-58
2022/10/03 00:37:10;;;;;;;14.68;2.17;;;10.10;99.90;;;;;;5061115;28;20048;-57
2022/10/03 00:39:58;;;;;;;10.68;2.10;;;10.10;99.90;;;;;;5063881;28;20032;-59
2022/10/03 00:42:40;;;;;;;11.52;2.10;;;10.10;99.90;;;;;;5081312;28;20734;-58
2022/10/03 00:45:33;;;;;;;13.88;2.00;;;10.30;99.90;;;;;;5079754;28;20049;-61
2022/10/03 00:48:24;;;;;;;10.88;1.98;;;10.30;99.90;;;;;;5080155;28;20080;-56
2022/10/03 00:50:55;;;;;;;11.23;1.70;;;10.30;99.90;;;;;;5079393;28;20055;-57
2022/10/03 00:53:51;;;;;;;13.38;1.70;;;10.20;99.90;;;;;;5080645;28;20075;-57
2022/10/03 00:56:41;;;;;;;15.05;1.80;;;10.40;99.90;;;;;;5080172;28;20052;-58
2022/10/03 00:59:13;;;;;;;10.98;1.52;;;10.40;99.90;;;;;;5075249;28;20041;-58
2022/10/03 01:01:49;;;;;;;10.20;1.55;;;10.40;99.90;;;;;;5060004;28;20543;-57
2022/10/03 01:04:36;;;;;;;9.80;1.40;;;10.50;99.90;;;;;;5060733;28;20125;-59
2022/10/03 01:07:28;;;;;;;10.82;1.65;;;10.40;99.90;;;;;;5059595;28;20113;-57
2022/10/03 01:10:04;;;;;;;14.10;1.88;;;10.40;99.90;;;;;;5059766;28;20072;-58
2022/10/03 01:12:48;;;;;;;13.00;2.70;;;10.40;99.90;;;;;;5060786;28;20057;-58
2022/10/03 01:15:46;;;;;;;9.98;2.25;;;10.30;99.90;;;;;;5060538;28;20064;-57
2022/10/03 01:18:14;;;;;;;13.35;1.80;;;10.40;99.90;;;;;;5059451;28;20102;-57
2022/10/03 01:20:55;;;;;;;10.77;1.92;;;10.10;99.90;;;;;;5060503;28;20049;-58
2022/10/03 01:23:51;;;;;;;13.02;1.98;;;10.20;99.90;;;;;;5059767;28;20929;-58
2022/10/03 01:26:40;;;;;;;20.67;2.83;;;10.30;99.90;;;;;;5059500;28;20044;-57
2022/10/03 01:32:09;;;;;;;11.77;1.73;;;10.30;99.90;;;;;;5059715;28;20088;-58
2022/10/03 01:34:58;;;;;;;14.23;2.08;;;10.30;99.90;;;;;;5059996;28;20044;-58
2022/10/03 01:37:57;;;;;;;10.88;2.38;;;10.30;99.90;;;;;;5060441;28;20049;-58
2022/10/03 01:40:37;;;;;;;11.55;1.80;;;10.30;99.90;;;;;;5068857;28;20043;-58
2022/10/03 01:43:10;;;;;;;11.55;2.00;;;10.30;99.90;;;;;;5079716;28;20094;-58
2022/10/03 01:45:42;;;;;;;10.23;2.83;;;10.20;99.90;;;;;;5080065;28;20048;-57
2022/10/03 01:48:35;;;;;;;15.98;2.38;;;10.40;99.90;;;;;;5079035;28;20481;-58
2022/10/03 01:51:21;;;;;;;16.88;2.72;;;10.50;99.90;;;;;;5080046;28;20068;-58
2022/10/03 01:54:16;;;;;;;8.90;1.70;;;10.40;99.90;;;;;;5077637;28;20500;-57
2022/10/03 01:57:04;;;;;;;10.10;1.67;;;10.50;99.90;;;;;;5078874;28;20039;-56
2022/10/03 01:59:38;;;;;;;12.52;1.63;;;10.50;99.90;;;;;;5070898;28;20037;-58
2022/10/03 02:02:19;;;;;;;12.85;1.90;;;10.40;99.90;;;;;;5059295;28;20049;-58
2022/10/03 02:05:16;;;;;;;10.70;1.85;;;10.40;99.90;;;;;;5058829;28;20048;-58
2022/10/03 02:08:04;;;;;;;13.13;2.75;;;10.30;99.90;;;;;;5059680;28;20471;-58
2022/10/03 02:10:51;;;;;;;12.82;2.13;;;10.50;99.90;;;;;;5059060;28;20075;-58
2022/10/03 02:13:37;;;;;;;11.82;2.15;;;10.30;99.90;;;;;;5058988;28;20076;-58
2022/10/03 02:16:35;;;;;;;13.63;1.60;;;10.40;99.90;;;;;;5059499;28;20056;-58
2022/10/03 02:19:49;;;;;;;17.92;3.08;;;10.30;99.90;;;;;;5059129;28;20048;-56
2022/10/03 02:22:35;;;;;;;12.65;1.70;;;10.30;99.90;;;;;;5005481;28;20064;-57
2022/10/03 02:25:10;;;;;;;19.45;2.00;;;10.30;99.90;;;;;;5059451;28;20087;-58
2022/10/03 02:27:54;;;;;;;9.23;1.63;;;10.40;99.90;;;;;;5058861;28;20049;-58
2022/10/03 02:30:53;;;;;;;10.13;1.95;;;10.60;99.90;;;;;;5058926;28;20072;-58
2022/10/03 02:33:56;;;;;;;12.65;2.67;;;10.40;99.90;;;;;;5059431;28;20049;-58
2022/10/03 02:36:40;;;;;;;15.45;1.67;;;10.40;99.90;;;;;;5058679;28;20048;-58
2022/10/03 02:39:31;;;;;;;10.80;1.88;;;10.70;99.90;;;;;;5056910;28;20060;-58
2022/10/03 02:42:17;;;;;;;10.25;2.53;;;10.50;99.90;;;;;;5059121;28;20148;-58
2022/10/03 02:45:07;;;;;;;8.73;1.73;;;10.70;99.90;;;;;;5058602;28;20041;-57
2022/10/03 02:47:45;;;;;;;13.75;1.85;;;10.80;99.90;;;;;;5058190;28;20045;-58
2022/10/03 02:50:53;;;;;;;12.00;1.73;;;10.80;99.90;;;;;;5059071;28;20041;-58
2022/10/03 02:53:47;;;;;;;11.60;1.58;;;10.80;99.90;;;;;;5058388;28;20053;-57
2022/10/03 02:56:36;;;;;;;10.00;1.60;;;10.80;99.90;;;;;;5058186;28;20041;-58
2022/10/03 02:59:29;;;;;;;10.18;1.77;;;10.90;99.90;;;;;;5064016;28;20051;-58
2022/10/03 03:02:30;;;;;;;13.52;1.85;;;10.70;99.90;;;;;;5078443;28;20543;-57
2022/10/03 03:05:04;;;;;;;12.18;1.77;;;10.80;99.90;;;;;;5077942;28;20049;-58
2022/10/03 03:08:10;;;;;;;8.38;1.50;;;10.90;99.90;;;;;;5079255;28;20089;-57
2022/10/03 03:11:02;;;;;;;11.48;1.65;;;10.80;99.90;;;;;;5081080;28;20044;-58
2022/10/03 03:13:59;;;;;;;14.30;3.05;;;10.70;99.90;;;;;;5081590;28;20116;-57
2022/10/03 03:17:07;;;;;;;11.10;1.67;;;10.70;99.90;;;;;;5082660;28;20052;-58
2022/10/03 03:19:57;;;;;;;8.77;1.85;;;10.70;99.90;;;;;;5082916;28;20036;-54
2022/10/03 03:22:45;;;;;;;11.30;2.10;;;10.70;99.90;;;;;;5082023;28;20055;-57
2022/10/03 03:25:34;;;;;;;11.73;1.73;;;11.00;99.90;;;;;;5082547;28;20045;-57
2022/10/03 03:28:25;;;;;;;13.18;1.60;;;10.80;99.90;;;;;;5082330;28;20067;-57
2022/10/03 03:31:08;;;;;;;12.70;1.70;;;10.80;99.90;;;;;;5081651;28;20393;-58
2022/10/03 03:33:42;;;;;;;8.52;1.40;;;10.70;99.90;;;;;;5082509;28;20045;-58
2022/10/03 03:36:35;;;;;;;12.43;1.58;;;10.80;99.90;;;;;;5081947;28;20083;-57
2022/10/03 03:39:23;;;;;;;15.23;1.70;;;10.80;99.90;;;;;;5081700;28;20068;-58
2022/10/03 03:42:26;;;;;;;11.88;2.13;;;10.70;99.90;;;;;;5062326;28;20505;-57
2022/10/03 03:45:06;;;;;;;8.85;1.50;;;10.60;99.90;;;;;;5061749;28;20335;-57
2022/10/03 03:47:53;;;;;;;9.95;1.30;;;10.90;99.90;;;;;;5061601;28;20467;-58
2022/10/03 03:50:42;;;;;;;8.38;2.00;;;10.70;99.90;;;;;;5062478;28;20557;-57
2022/10/03 03:53:28;;;;;;;20.73;3.20;;;10.70;99.90;;;;;;5061620;28;20045;-58
2022/10/03 03:56:19;;;;;;;9.43;1.60;;;10.80;99.90;;;;;;5061708;28;20053;-59
2022/10/03 03:59:40;;;;;;;14.77;1.75;;;10.80;99.90;;;;;;5064556;28;20195;-60
2022/10/03 04:02:29;;;;;;;14.57;2.72;;;10.60;99.90;;;;;;5058934;28;20053;-57
2022/10/03 04:05:34;;;;;;;13.23;1.75;;;10.80;99.90;;;;;;5080544;28;20433;-58
2022/10/03 04:08:21;;;;;;;8.00;1.65;;;10.70;99.90;;;;;;5080773;28;20059;-58
2022/10/03 04:11:18;;;;;;;9.68;1.80;;;10.70;99.90;;;;;;5063354;28;20048;-57
2022/10/03 04:14:22;;;;;;;15.13;1.77;;;10.80;99.90;;;;;;5081060;28;20041;-58
2022/10/03 04:20:15;;;;;;;12.45;1.80;;;10.60;99.90;;;;;;5081652;28;20044;-58
2022/10/03 04:22:56;;;;;;;9.13;1.30;;;10.60;99.90;;;;;;5080994;28;20051;-57
2022/10/03 04:26:00;;;;;;;9.63;1.35;;;10.70;99.90;;;;;;5081607;28;20052;-58
2022/10/03 04:28:44;;;;;;;9.85;1.70;;;10.70;99.90;;;;;;5080275;28;20056;-59
2022/10/03 04:31:25;;;;;;;10.90;1.65;;;10.70;99.90;;;;;;5080749;28;20076;-58
2022/10/03 04:34:13;;;;;;;9.48;1.42;;;10.80;99.90;;;;;;5081413;28;20044;-58
2022/10/03 04:36:55;;;;;;;11.13;1.60;;;10.90;99.90;;;;;;5081248;28;20055;-57
2022/10/03 04:39:29;;;;;;;12.63;1.80;;;10.90;99.90;;;;;;5079953;28;20079;-58
2022/10/03 04:42:33;;;;;;;9.45;1.40;;;10.90;99.90;;;;;;5081430;28;20037;-58
2022/10/03 04:45:34;;;;;;;13.38;1.65;;;10.80;99.90;;;;;;5080785;28;20064;-57
2022/10/03 04:48:27;;;;;;;9.15;1.83;;;10.90;99.90;;;;;;5058484;28;20449;-57
2022/10/03 04:50:56;;;;;;;9.75;2.03;;;10.80;99.90;;;;;;5081278;28;20045;-58
2022/10/03 04:53:47;;;;;;;10.88;1.35;;;10.70;99.90;;;;;;5080544;28;20048;-57
2022/10/03 04:56:37;;;;;;;9.95;1.80;;;10.70;99.90;;;;;;5080321;28;20049;-58
2022/10/03 04:59:44;;;;;;;10.90;1.67;;;10.60;99.90;;;;;;5075880;28;20040;-58
2022/10/03 05:02:13;;;;;;;10.40;1.60;;;10.60;99.90;;;;;;5060489;28;20053;-57
2022/10/03 05:05:01;;;;;;;10.63;1.67;;;10.70;99.90;;;;;;5060063;28;20114;-58
2022/10/03 05:07:44;;;;;;;10.48;2.13;;;10.50;99.90;;;;;;5060726;28;20045;-57
2022/10/03 05:10:25;;;;;;;11.48;2.47;;;10.60;99.90;;;;;;5059831;28;20051;-57
2022/10/03 05:13:19;;;;;;;9.45;1.48;;;10.40;99.90;;;;;;5059944;28;20049;-58
2022/10/03 05:16:16;;;;;;;10.10;1.67;;;10.50;99.90;;;;;;5060753;28;20049;-58
2022/10/03 05:18:51;;;;;;;11.52;1.77;;;10.40;99.90;;;;;;5042104;28;20111;-58
2022/10/03 05:21:38;;;;;;;10.10;1.33;;;10.50;99.90;;;;;;5060252;28;20060;-58
2022/10/03 05:24:16;;;;;;;12.20;1.60;;;10.50;99.90;;;;;;5058918;28;20147;-58
2022/10/03 05:27:04;;;;;;;6.43;1.42;;;10.50;99.90;;;;;;5059806;28;20037;-58
2022/10/03 05:30:07;;;;;;;8.95;1.30;;;10.40;99.90;;;;;;5059581;28;20080;-57
2022/10/03 05:32:32;;;;;;;;;;;10.50;99.90;;;;;;5060362;28;20045;-57
2022/10/03 05:35:17;;;;;;;11.00;1.75;;;10.30;99.90;;;;;;5057876;28;19978;-59
2022/10/03 05:38:03;;;;;;;9.32;1.50;;;10.30;99.90;;;;;;5060156;28;20120;-58
2022/10/03 05:40:33;;;;;;;8.02;1.40;;;10.00;99.90;;;;;;5070362;28;20104;-57
2022/10/03 05:43:22;;;;;;;10.38;1.95;;;10.20;99.90;;;;;;5079835;28;20048;-58
2022/10/03 05:46:14;;;;;;;10.95;1.33;;;10.10;99.90;;;;;;5078689;28;20123;-57
2022/10/03 05:48:56;;;;;;;12.65;2.40;;;10.00;99.90;;;;;;5079238;28;20036;-57
2022/10/03 05:51:40;;;;;;;;;;;9.90;99.90;;;;;;5080291;28;20063;-58
2022/10/03 05:54:30;;;;;;;13.95;2.85;;;9.90;99.90;;;;;;5079895;28;19920;-58
2022/10/03 05:57:17;;;;;;;10.68;2.00;;;9.70;99.90;;;;;;5079152;28;20051;-58
2022/10/03 05:59:59;;;;;;;8.25;1.48;;;9.90;99.90;;;;;;5069004;28;20054;-58
2022/10/03 06:02:34;;;;;;;;;;;9.90;99.90;;;;;;5060521;28;20052;-57
2022/10/03 06:05:14;;;;;;;12.60;2.30;;;9.90;99.90;;;;;;5058507;28;19980;-58
2022/10/03 06:07:40;;;;;;;9.15;1.83;;;9.70;99.90;;;;;;5059617;28;20052;-56
2022/10/03 06:10:24;;;;;;;13.52;2.08;;;9.80;99.90;;;;;;5058702;28;20041;-57
2022/10/03 06:13:08;;;;;;;12.45;2.13;;;9.70;99.90;;;;;;5059015;28;20064;-58
2022/10/03 06:15:56;;;;;;;16.92;2.10;;;9.90;99.90;;;;;;5059547;28;20398;-57
2022/10/03 06:18:25;;;;;;;13.90;2.20;;;9.90;99.90;;;;;;5058735;28;20029;-58
2022/10/03 06:21:26;;;;;;;11.40;2.15;;;9.90;99.90;;;;;;5059365;28;20493;-59
2022/10/03 06:24:18;;;;;;;11.80;2.22;;;10.00;99.90;;;;;;5052061;28;20128;-57
2022/10/03 06:27:14;;;;;;;14.05;2.72;;;9.90;99.90;;;;;;5058736;28;20049;-58
2022/10/03 06:30:02;;;;;;;8.27;2.00;;;10.20;99.90;;;;;;5059631;28;20063;-58
2022/10/03 06:32:50;;;;;;;12.45;2.53;;;10.10;99.90;;;;;;5059321;28;20045;-57
2022/10/03 06:35:53;;;;;;;10.20;2.10;;;10.10;99.90;;;;;;5058529;28;20053;-58
2022/10/03 06:38:21;;;;;;;;;;;10.10;99.90;;;;;;5059865;28;20075;-58
2022/10/03 06:41:06;;;;;;;13.02;2.33;;;10.20;99.90;;;;;;5072071;28;19967;-57
2022/10/03 06:44:17;;;;;;;10.90;1.95;;;10.10;99.90;;;;;;5074401;28;20063;-57
2022/10/03 06:46:58;;;;;;;11.73;2.50;;;10.10;99.90;;;;;;5032707;28;20137;-58
2022/10/03 06:49:38;;;;;;;11.32;2.10;;;10.30;99.90;;;;;;5032093;28;20084;-56
2022/10/03 06:52:31;;;;;;;8.05;1.70;;;10.40;99.90;;;;;;5060044;28;20520;-58
2022/10/03 06:54:56;;;;;;;;;;;10.40;99.90;;;;;;5075511;28;20078;-57
2022/10/03 06:57:45;;;;;;;9.43;1.90;;;10.40;99.90;;;;;;5074441;28;19920;-57
2022/10/03 07:00:49;;;;;;;10.93;1.98;;;10.60;99.90;;;;;;5027820;28;20480;-56
2022/10/03 07:03:36;;;;;;;14.23;2.50;;;10.40;99.90;;;;;;5055225;28;20057;-58
2022/10/03 07:06:36;;;;;;;11.50;2.22;;;10.50;99.90;;;;;;5054538;28;20053;-58
2022/10/03 07:09:36;;;;;;;7.68;1.60;;;10.60;99.90;;;;;;5053721;28;20052;-58
2022/10/03 07:12:34;;;;;;;10.93;1.95;;;10.70;99.90;;;;;;5043018;28;20072;-58
2022/10/03 07:15:35;;;;;;;8.70;1.58;;;10.90;99.90;;;;;;5066774;28;20052;-58
2022/10/03 07:18:30;;;;;;;7.55;1.95;;;11.00;99.90;;;;;;5031579;28;20089;-59
2022/10/03 07:21:10;;;;;;;11.40;2.03;;;11.10;99.90;;;;;;5036450;28;20053;-59
2022/10/03 07:24:10;;;;;;;9.68;2.00;;;11.10;99.90;;;;;;5074731;28;20048;-59
2022/10/03 07:26:54;;;;;;;13.40;2.75;;;11.30;99.90;;;;;;5074344;28;20052;-59
2022/10/03 07:30:07;;;;;;;11.50;2.05;;;11.40;99.90;;;;;;5075065;28;20090;-59
2022/10/03 07:32:39;;;;;;;11.75;1.70;;;11.30;99.90;;;;;;5031932;28;20120;-58
2022/10/03 07:39:25;;;;;;;14.70;3.50;;;11.50;99.90;;;;;;5051953;28;20041;-58
2022/10/03 07:42:05;;;;;;;10.90;1.63;;;11.80;99.90;;;;;;5015705;28;20057;-57
2022/10/03 07:44:46;;;;;;;12.13;1.90;;;11.80;99.90;;;;;;5050653;28;20087;-56
2022/10/03 07:47:50;;;;;;;14.30;1.80;;;11.80;99.90;;;;;;5054107;28;20501;-58
2022/10/03 07:50:39;;;;;;;9.80;1.63;;;12.10;99.90;;;;;;5054711;28;20045;-58
2022/10/03 07:53:27;;;;;;;12.30;1.90;;;12.30;99.90;;;;;;5054242;28;20153;-58
2022/10/03 07:56:22;;;;;;;13.40;1.77;;;12.50;99.90;;;;;;5057015;28;20091;-58
2022/10/03 07:59:32;;;;;;;8.80;1.77;;;12.50;99.90;;;;;;5061351;28;20044;-57
2022/10/03 08:01:58;;;;;;;10.43;1.70;;;12.40;99.90;;;;;;5054890;28;20431;-57
2022/10/03 08:05:00;;;;;;;11.65;1.88;;;12.50;99.90;;;;;;5054647;28;20211;-58
2022/10/03 08:07:54;;;;;;;10.55;2.25;;;12.60;99.90;;;;;;5071997;28;20498;-58
2022/10/03 08:10:41;;;;;;;11.57;1.95;;;12.90;99.90;;;;;;5077365;28;20040;-57
2022/10/03 08:13:25;;;;;;;10.73;1.90;;;13.10;99.90;;;;;;5077458;28;20055;-59
2022/10/03 08:15:54;;;;;;;14.35;1.73;;;12.90;99.90;;;;;;5077059;28;20151;-58
2022/10/03 08:18:55;;;;;;;11.18;1.80;;;13.10;99.90;;;;;;5077381;28;20048;-58
2022/10/03 08:21:29;;;;;;;21.90;3.20;;;13.20;99.90;;;;;;5074456;28;20106;-58
2022/10/03 08:24:31;;;;;;;13.95;2.10;;;13.30;99.90;;;;;;5076772;28;20052;-57
2022/10/03 08:27:23;;;;;;;13.73;1.63;;;13.40;99.90;;;;;;5057143;28;20041;-58
2022/10/03 08:30:08;;;;;;;12.90;2.00;;;13.70;99.90;;;;;;5048833;28;20049;-58
2022/10/03 08:32:56;;;;;;;11.50;2.05;;;13.80;99.90;;;;;;5057548;28;20057;-58
2022/10/03 08:35:25;;;;;;;9.25;1.60;;;13.90;99.90;;;;;;5056984;28;20053;-58
2022/10/03 08:38:09;;;;;;;13.30;1.65;;;13.90;99.90;;;;;;5057599;28;20067;-58
2022/10/03 08:40:43;;;;;;;9.73;1.48;;;14.00;99.90;;;;;;5068349;28;20064;-58
2022/10/03 08:43:46;;;;;;;10.82;2.00;;;14.00;99.90;;;;;;5076449;28;20368;-58
2022/10/03 08:46:23;;;;;;;8.38;1.13;;;14.10;99.90;;;;;;5077564;28;20060;-58
2022/10/03 08:49:14;;;;;;;9.77;1.63;;;14.40;99.90;;;;;;5076950;28;20121;-57
2022/10/03 08:52:21;;;;;;;15.75;2.65;;;14.30;99.90;;;;;;5077183;28;20075;-58
2022/10/03 08:54:56;;;;;;;10.02;1.60;;;14.40;99.90;;;;;;5077341;28;20098;-58
2022/10/03 08:57:43;;;;;;;9.82;1.50;;;14.50;99.90;;;;;;5080034;28;20048;-57
2022/10/03 09:00:17;;;;;;;8.10;1.40;;;14.60;99.90;;;;;;5065722;28;20056;-58
2022/10/03 09:02:52;;;;;;;9.52;1.33;;;14.50;99.90;;;;;;5060511;28;20449;-58
2022/10/03 09:05:21;;;;;;;10.30;2.25;;;14.70;99.90;;;;;;5059020;28;20049;-58
2022/10/03 09:07:58;;;;;;;14.73;1.98;;;14.60;99.90;;;;;;5060140;28;20044;-58
2022/10/03 09:10:48;;;;;;;13.45;1.55;;;14.80;99.90;;;;;;5059827;28;20037;-58
2022/10/03 09:13:32;;;;;;;10.02;1.63;;;14.70;99.90;;;;;;5059527;28;20072;-58
2022/10/03 09:16:01;;;;;;;10.65;1.55;;;14.80;99.90;;;;;;5060665;28;20045;-58
2022/10/03 09:18:44;;;;;;;12.63;1.77;;;14.80;99.90;;;;;;5070389;28;20124;-58
2022/10/03 09:21:25;;;;;;;13.60;2.03;;;14.90;99.90;;;;;;5070801;28;20044;-59
2022/10/03 09:24:13;;;;;;;10.27;1.40;;;14.80;99.90;;;;;;5067981;28;20057;-57
2022/10/03 09:27:22;;;;;;;11.07;3.05;;;14.90;99.90;;;;;;5069222;28;20044;-58
2022/10/03 09:29:58;;;;;;;13.57;1.40;;;14.90;99.90;;;;;;5066063;28;20053;-58
2022/10/03 09:32:39;;;;;;;12.65;1.73;;;14.90;99.90;;;;;;5068314;28;20447;-58
2022/10/03 09:35:44;;;;;;;7.85;1.25;;;15.10;99.90;;;;;;5069818;28;20037;-58
2022/10/03 09:38:39;;;;;;;8.95;2.10;;;15.10;99.90;;;;;;5072899;28;20051;-58
2022/10/03 09:41:20;;;;;;;8.05;1.20;;;15.10;99.90;;;;;;5077054;28;20040;-58
2022/10/03 09:44:17;;;;;;;6.63;1.40;;;15.20;99.90;;;;;;5076189;28;20047;-58
2022/10/03 09:47:26;;;;;;;7.85;1.33;;;15.20;99.90;;;;;;5074124;28;20033;-58
2022/10/03 09:50:23;;;;;;;8.05;1.25;;;15.30;99.90;;;;;;5072250;28;20033;-58
2022/10/03 09:53:28;;;;;;;8.65;1.42;;;15.30;99.90;;;;;;5074707;28;20082;-58
2022/10/03 09:56:25;;;;;;;8.63;1.40;;;15.40;99.90;;;;;;5059183;28;20076;-59
2022/10/03 09:59:15;;;;;;;5.70;1.00;;;15.30;99.90;;;;;;5062818;28;20043;-59
2022/10/03 10:01:56;;;;;;;7.20;1.10;;;15.40;99.90;;;;;;5078744;28;20503;-58
2022/10/03 10:04:52;;;;;;;7.65;1.30;;;15.50;99.90;;;;;;5078717;28;20045;-59
2022/10/03 10:07:18;;;;;;;6.85;1.33;;;15.40;99.90;;;;;;5077822;28;20076;-58
2022/10/03 10:10:04;;;;;;;5.97;1.38;;;15.60;99.90;;;;;;5077563;28;20059;-58
2022/10/03 10:12:57;;;;;;;8.23;1.10;;;15.60;99.90;;;;;;5078790;28;20060;-58
2022/10/03 10:15:41;;;;;;;12.25;1.50;;;15.70;99.90;;;;;;5078450;28;20054;-57
2022/10/03 10:18:34;;;;;;;8.10;1.10;;;15.70;99.90;;;;;;5078382;28;20033;-58
2022/10/03 10:21:35;;;;;;;7.75;1.40;;;15.70;99.90;;;;;;5059297;28;20100;-58
2022/10/03 10:24:31;;;;;;;8.70;1.02;;;15.70;99.90;;;;;;5050181;28;20049;-58
2022/10/03 10:27:28;;;;;;;10.43;1.50;;;15.70;99.90;;;;;;5056729;28;20622;-58
2022/10/03 10:30:08;;;;;;;9.55;1.40;;;15.80;99.90;;;;;;5058596;28;20053;-58
2022/10/03 10:32:42;;;;;;;8.80;1.67;;;15.80;99.90;;;;;;5059382;28;20048;-57
2022/10/03 10:35:32;;;;;;;9.18;1.42;;;15.80;99.90;;;;;;5058387;28;20049;-58
2022/10/03 10:38:30;;;;;;;7.65;1.40;;;15.70;99.90;;;;;;5058713;28;20066;-58
2022/10/03 10:41:22;;;;;;;9.35;1.27;;;15.70;99.90;;;;;;5073648;28;20408;-58
2022/10/03 10:44:13;;;;;;;8.27;1.00;;;15.80;99.90;;;;;;5077917;28;20495;-58
2022/10/03 10:47:16;;;;;;;6.32;1.20;;;15.90;99.90;;;;;;5079057;28;20052;-58
2022/10/03 10:50:25;;;;;;;8.00;1.45;;;15.80;99.90;;;;;;5079339;28;20055;-58
2022/10/03 10:53:36;;;;;;;7.10;1.20;;;15.90;99.90;;;;;;5075373;28;20107;-58
2022/10/03 10:56:37;;;;;;;6.32;1.00;;;15.80;99.90;;;;;;5075956;28;20071;-58
2022/10/03 10:59:40;;;;;;;8.45;1.10;;;15.90;99.90;;;;;;5073901;28;20092;-58
2022/10/03 11:02:30;;;;;;;6.70;1.10;;;15.80;99.90;;;;;;5058574;28;20488;-58
2022/10/03 11:05:33;;;;;;;7.95;1.10;;;15.80;99.90;;;;;;5058050;28;20096;-58
2022/10/03 11:08:22;;;;;;;13.23;2.53;;;15.90;99.90;;;;;;5058995;28;20056;-58
2022/10/03 11:11:09;;;;;;;6.60;1.27;;;16.00;99.90;;;;;;5058557;28;20079;-57
2022/10/03 11:14:16;;;;;;;13.32;1.50;;;16.00;99.90;;;;;;5057822;28;20041;-58
2022/10/03 11:16:47;;;;;;;8.43;1.75;;;16.10;99.90;;;;;;5058333;28;20071;-58
2022/10/03 11:19:28;;;;;;;11.70;1.73;;;16.10;99.90;;;;;;5058622;28;20041;-58
2022/10/03 11:22:08;;;;;;;7.40;1.10;;;16.20;99.90;;;;;;5056390;28;20299;-58
2022/10/03 11:25:25;;;;;;;5.93;1.40;;;16.20;99.90;;;;;;5058700;28;20068;-58
2022/10/03 11:28:09;;;;;;;7.68;1.17;;;16.20;99.90;;;;;;5058741;28;20068;-58
2022/10/03 11:31:17;;;;;;;10.27;1.40;;;16.30;99.90;;;;;;5061442;28;20041;-59
2022/10/03 11:34:14;;;;;;;9.00;1.20;;;16.30;99.90;;;;;;5059335;28;20076;-59
2022/10/03 11:37:01;;;;;;;5.15;1.15;;;16.50;99.90;;;;;;5062551;28;20144;-58
2022/10/03 11:39:48;;;;;;;5.47;1.05;;;16.50;99.90;;;;;;5063249;28;20049;-58
2022/10/03 11:42:46;;;;;;;9.90;1.65;;;16.60;99.90;;;;;;5081010;28;20048;-58
2022/10/03 11:45:17;;;;;;;8.73;1.95;;;16.70;99.90;;;;;;5080668;28;20481;-58
2022/10/03 11:48:06;;;;;;;9.30;1.07;;;16.70;99.90;;;;;;5078743;28;20074;-59
2022/10/03 11:50:38;;;;;;;6.55;1.42;;;16.70;99.90;;;;;;5080753;28;20398;-59
2022/10/03 11:53:14;;;;;;;9.00;1.40;;;16.60;99.90;;;;;;5079192;28;20146;-58
2022/10/03 11:55:47;;;;;;;8.65;1.40;;;16.70;99.90;;;;;;5078843;28;20045;-58
2022/10/03 11:58:18;;;;;;;10.50;1.40;;;16.70;99.90;;;;;;5082308;28;20096;-58
2022/10/03 12:00:50;;;;;;;8.85;1.15;;;16.80;99.90;;;;;;5080591;28;20116;-58
2022/10/03 12:03:25;;;;;;;7.28;1.17;;;17.00;99.90;;;;;;5081275;28;20044;-58
2022/10/03 12:08:56;;;;;;;6.60;1.20;;;17.30;99.90;;;;;;5078217;28;20067;-58
2022/10/03 12:11:38;;;;;;;9.48;1.52;;;17.30;99.90;;;;;;5079415;28;20066;-58
2022/10/03 12:14:12;;;;;;;7.28;1.05;;;17.20;99.90;;;;;;5080331;28;20048;-58
2022/10/03 12:16:56;;;;;;;5.97;1.00;;;17.00;99.90;;;;;;5081193;28;20048;-58
2022/10/03 12:19:23;;;;;;;6.95;1.10;;;16.90;99.90;;;;;;5081188;28;20048;-58
2022/10/03 12:22:02;;;;;;;7.82;1.33;;;16.80;99.90;;;;;;5080144;28;20094;-58
2022/10/03 12:24:33;;;;;;;8.00;1.20;;;16.90;99.90;;;;;;5079157;28;20094;-58
2022/10/03 12:27:29;;;;;;;6.32;1.20;;;16.80;99.90;;;;;;5080459;28;20048;-58
2022/10/03 12:30:10;;;;;;;9.48;1.58;;;16.90;99.90;;;;;;5080927;28;20049;-59
2022/10/03 12:32:54;;;;;;;4.00;0.95;;;16.90;99.90;;;;;;5081689;28;20137;-59
2022/10/03 12:36:04;;;;;;;8.02;1.30;;;16.90;99.90;;;;;;5080698;28;20052;-58
2022/10/03 12:38:38;;;;;;;6.18;1.27;;;16.90;99.90;;;;;;5047827;28;20056;-58
2022/10/03 12:41:19;;;;;;;10.15;1.33;;;16.80;99.90;;;;;;5080614;28;20036;-58
2022/10/03 12:44:10;;;;;;;6.80;1.10;;;16.90;99.90;;;;;;5079995;28;20049;-59
2022/10/03 12:46:50;;;;;;;7.88;1.20;;;16.90;99.90;;;;;;5080785;28;20098;-58
2022/10/03 12:49:53;;;;;;;6.22;1.10;;;16.90;99.90;;;;;;5081011;28;20500;-58
2022/10/03 12:52:33;;;;;;;5.28;0.98;;;16.90;99.90;;;;;;5080339;28;20083;-58
2022/10/03 12:55:13;;;;;;;8.95;1.35;;;16.70;99.90;;;;;;5079619;28;20044;-59
2022/10/03 12:58:00;;;;;;;6.63;0.90;;;16.70;99.90;;;;;;5080386;28;20040;-58
2022/10/03 13:00:34;;;;;;;8.07;1.65;;;16.60;99.90;;;;;;5077939;28;20056;-58
2022/10/03 13:03:14;;;;;;;6.18;1.10;;;16.70;99.90;;;;;;5079354;28;20092;-59
2022/10/03 13:05:58;;;;;;;8.63;1.20;;;16.70;99.90;;;;;;5079808;28;20049;-58
2022/10/03 13:08:58;;;;;;;8.85;1.45;;;16.70;99.90;;;;;;5080189;28;20052;-59
2022/10/03 13:11:53;;;;;;;6.20;1.38;;;16.80;99.90;;;;;;5080548;28;20039;-59
2022/10/03 13:14:40;;;;;;;7.60;1.50;;;16.80;99.90;;;;;;5079774;28;20049;-58
2022/10/03 13:17:08;;;;;;;7.25;1.17;;;16.60;99.90;;;;;;5079994;28;20052;-58
2022/10/03 13:20:02;;;;;;;6.43;1.15;;;16.70;99.90;;;;;;5080569;28;20055;-58
2022/10/03 13:22:44;;;;;;;5.63;1.10;;;16.60;99.90;;;;;;5079296;28;20063;-58
2022/10/03 13:25:18;;;;;;;4.63;1.00;;;16.50;99.90;;;;;;5078265;28;20045;-58
2022/10/03 13:28:05;;;;;;;7.82;1.30;;;16.50;99.90;;;;;;5079679;28;20051;-58
2022/10/03 13:30:44;;;;;;;7.03;1.13;;;16.40;99.90;;;;;;5079174;28;20112;-57
2022/10/03 13:33:20;;;;;;;6.63;1.10;;;16.40;99.90;;;;;;5080218;28;20523;-59
2022/10/03 13:36:04;;;;;;;7.47;1.30;;;16.50;99.90;;;;;;5079393;28;20048;-59
2022/10/03 13:38:53;;;;;;;6.97;1.25;;;16.60;99.90;;;;;;5079579;28;20083;-58
2022/10/03 13:41:34;;;;;;;7.35;1.15;;;16.60;99.90;;;;;;5079828;28;20106;-58
2022/10/03 13:44:27;;;;;;;6.25;1.20;;;16.60;99.90;;;;;;5079396;28;20056;-58
2022/10/03 13:47:27;;;;;;;5.75;1.33;;;16.60;99.90;;;;;;5079378;28;20053;-58
2022/10/03 13:49:52;;;;;;;13.45;4.95;;;16.50;99.90;;;;;;5079798;28;20040;-58
2022/10/03 13:52:22;;;;;;;8.65;1.50;;;16.50;99.90;;;;;;5078496;28;20083;-58
2022/10/03 13:55:09;;;;;;;7.40;1.27;;;16.40;99.90;;;;;;5079892;28;20053;-58
2022/10/03 13:57:55;;;;;;;7.70;1.13;;;16.40;99.90;;;;;;5078132;28;20044;-58
2022/10/03 14:00:25;;;;;;;7.95;1.85;;;16.30;99.90;;;;;;5062422;28;20078;-58
2022/10/03 14:02:58;;;;;;;7.28;1.20;;;16.50;99.90;;;;;;5059804;28;20053;-57
2022/10/03 14:05:51;;;;;;;8.07;1.35;;;16.50;99.90;;;;;;5057545;28;20051;-58
2022/10/03 14:08:37;;;;;;;6.18;1.25;;;16.50;99.90;;;;;;5058195;28;20098;-59
2022/10/03 14:11:21;;;;;;;7.97;1.65;;;16.40;99.90;;;;;;5058468;28;20045;-58
2022/10/03 14:13:52;;;;;;;8.02;1.67;;;16.50;99.90;;;;;;5058081;28;20044;-58
2022/10/03 14:16:26;;;;;;;9.27;1.13;;;16.50;99.90;;;;;;5059202;28;20064;-58
2022/10/03 14:19:08;;;;;;;4.90;1.13;;;16.40;99.90;;;;;;5058938;28;20640;-58
2022/10/03 14:21:34;;;;;;;9.02;2.10;;;16.50;99.90;;;;;;5058357;28;20043;-59
2022/10/03 14:24:04;;;;;;;5.63;1.35;;;16.50;99.90;;;;;;5058788;28;20045;-58
2022/10/03 14:26:49;;;;;;;6.30;1.45;;;16.50;99.90;;;;;;5058482;28;20087;-58
2022/10/03 14:29:24;;;;;;;7.18;1.23;;;16.50;99.90;;;;;;5057273;28;20041;-58
2022/10/03 14:32:14;;;;;;;6.60;1.23;;;16.50;99.90;;;;;;5058314;28;20060;-58
2022/10/03 14:34:54;;;;;;;9.88;1.40;;;16.50;99.90;;;;;;5058365;28;20048;-58
2022/10/03 14:37:45;;;;;;;6.57;1.42;;;16.40;99.90;;;;;;5059041;28;20592;-59